Flight Track Log - Related Links

Times and Time Zones

All times are in EST time to prevent confusion due to time zone crossing. See the UCA3599 flight status page for this flight to view local times or setup timezone preferences in your user account.

Time Position Orientation Groundspeed Altitude Reporting Facility
EST Latitude Longitude Course Direction KTS MPH feet Rate Location/Type
Sun 06:10:20 AM 42.2339 -76.0278 219° Southwest 138 159 3,500  Level New York Center
Sun 06:11:20 AM 42.1986 -76.0669 219° Southwest 178 205 5,000 1,650 Climbing New York Center
Sun 06:12:20 AM 42.1492 -76.1019 208° Southwest 191 220 6,800 1,800 Climbing New York Center
Sun 06:13:20 AM 42.1058 -76.1433 215° Southwest 196 226 8,600 1,750 Climbing New York Center
Sun 06:14:20 AM 42.0567 -76.1728 204° Southwest 201 231 10,300 1,700 Climbing New York Center
Sun 06:15:20 AM 42.0117 -76.1997 204° Southwest 201 231 12,000 1,700 Climbing New York Center
Sun 06:16:20 AM 41.9603 -76.2292 203° Southwest 196 226 13,700 1,550 Climbing New York Center
Sun 06:17:20 AM 41.9092 -76.2528 199° South 196 226 15,100 1,100 Climbing New York Center
Sun 06:18:20 AM 41.8578 -76.2847 205° Southwest 201 231 15,900 400 Climbing New York Center
Sun 06:19:20 AM 41.8000 -76.3161 202° Southwest 231 266 15,900  Level New York Center
Sun 06:20:20 AM 41.7275 -76.3572 203° Southwest 262 302 15,900 50 Level New York Center
Sun 06:21:20 AM 41.6608 -76.3989 205° Southwest 267 307 16,000 50 Climbing New York Center
Sun 06:22:20 AM 41.5925 -76.4347 201° Southwest 262 302 16,000  Level New York Center
Sun 06:23:20 AM 41.5325 -76.4686 203° Southwest 262 302 16,000  Level New York Center
Sun 06:24:20 AM 41.4661 -76.5072 204° Southwest 262 302 16,000  Level New York Center
Sun 06:25:20 AM 41.3914 -76.5478 202° Southwest 262 302 16,000  Level New York Center
Sun 06:26:20 AM 41.3250 -76.5836 202° Southwest 262 302 16,000  Level New York Center
Sun 06:27:20 AM 41.2606 -76.6194 203° Southwest 262 302 16,000  Level New York Center
Sun 06:28:20 AM 41.2006 -76.6556 204° Southwest 262 302 16,000  Level New York Center
Sun 06:29:20 AM 41.1319 -76.6964 204° Southwest 262 302 16,000 50 Level New York Center
Sun 06:30:20 AM 41.0675 -76.7322 203° Southwest 262 302 16,100  Climbing New York Center
Sun 06:31:20 AM 41.0011 -76.7678 202° Southwest 262 302 16,000  Descending New York Center
Sun 06:32:20 AM 40.9283 -76.8081 203° Southwest 262 302 16,100 50 Climbing New York Center
Sun 06:33:20 AM 40.8617 -76.8458 203° Southwest 262 302 16,100  Level New York Center
Sun 06:34:20 AM 40.7953 -76.8811 202° Southwest 262 302 16,100  Level New York Center
Sun 06:35:20 AM 40.7253 -76.9050 195° South 262 302 16,100 -50 Level New York Center
Sun 06:36:20 AM 40.6533 -76.9286 194° South 269 310 16,000 -50 Descending New York Center
Sun 06:37:20 AM 40.5792 -76.9522 194° South 269 310 16,000  Level New York Center
Sun 06:38:20 AM 40.5069 -76.9731 192° South 269 310 16,000 -200 Level New York Center
Sun 06:39:20 AM 40.4308 -76.9961 193° South 275 316 15,600 -700 Descending New York Center
Sun 06:40:20 AM 40.3544 -77.0192 193° South 286 329 14,600 -994 Descending New York Center
Sun 06:42:09 AM 40.2167 -77.0667 195° South 280 322 12,800 -1,000 Descending Potomac TRACON
Sun 06:43:08 AM 40.1500 -77.0833 191° South 271 312 11,800 -1,008 Descending Potomac TRACON
Sun 06:44:08 AM 40.0667 -77.1000 189° South 266 306 10,800 -1,000 Descending Potomac TRACON
Sun 06:45:08 AM 40.0000 -77.1333 201° Southwest 276 318 9,800 -939 Descending Potomac TRACON
Sun 06:46:03 AM 39.9333 -77.1500 191° South 278 320 9,000 -417 Descending Potomac TRACON
Sun 06:47:03 AM 39.8500 -77.1667 189° South 266 306 9,000 -50 Level Potomac TRACON
Sun 06:48:03 AM 39.7833 -77.2000 201° Southwest 265 305 8,900 -316 Descending Potomac TRACON
Sun 06:48:57 AM 39.7167 -77.2167 191° South 272 313 8,400 -684 Descending Potomac TRACON
Sun 06:49:57 AM 39.6667 -77.2667 218° Southwest 260 299 7,600 -737 Descending Potomac TRACON
Sun 06:50:51 AM 39.6167 -77.3333 226° Southwest 264 304 7,000 -316 Descending Potomac TRACON
Sun 06:51:51 AM 39.5500 -77.3500 191° South 273 314 7,000  Level Potomac TRACON
Sun 06:52:51 AM 39.4833 -77.3500 180° South 265 305 7,000  Level Potomac TRACON
Sun 06:53:45 AM 39.4000 -77.3667 189° South 268 308 7,000 -500 Level Potomac TRACON
Sun 06:54:39 AM 39.3333 -77.3667 180° South 279 321 6,100 -1,050 Descending Potomac TRACON
Sun 06:55:45 AM 39.2500 -77.3667 180° South 281 323 4,900 -1,000 Descending Potomac TRACON
Sun 06:56:45 AM 39.1833 -77.3667 180° South 268 308 4,000 -500 Descending Potomac TRACON
Sun 06:57:45 AM 39.1000 -77.3500 171° South 265 305 3,900 -211 Descending Potomac TRACON
Sun 06:58:39 AM 39.0333 -77.3500 180° South 266 306 3,600 -450 Descending Potomac TRACON
Sun 06:59:45 AM 38.9500 -77.3500 180° South 264 304 3,000 -350 Descending Potomac TRACON
Sun 07:00:39 AM 38.9000 -77.3500 180° South 262 302 2,900 -474 Descending Potomac TRACON
Sun 07:01:39 AM 38.8333 -77.3667 191° South 244 281 2,100 -421 Descending Potomac TRACON
Sun 07:02:33 AM 38.7833 -77.4000 207° Southwest 217 250 2,100  Level Potomac TRACON
Sun 07:03:33 AM 38.8167 -77.4333 322° Northwest 184 212 2,100 -250 Level Potomac TRACON
Sun 07:04:33 AM 38.8667 -77.4333 360° North 145 167 1,600 -550 Descending Potomac TRACON
Sun 07:05:33 AM 38.9000 -77.4333 360° North 114 131 1,000 -600 Descending Potomac TRACON
Sun 07:07:00 AM 38.9333 -77.4500 349° North  Level FlightAware Approximate
Sun 07:14:00 AM 38.9474 -77.4599 349° North  Level Estimated
Sun 07:15:00 AM 38.9474 -77.4599 349° North  Level Estimated

Login

Don't have an account? Register now (free) for customized features, flight alerts, and more!